sensor_id;sensor_type;location;lat;lon;timestamp;temperature;humidity
5621;DHT22;2832;50.864;12.186;2024-01-16T00:02:14;6.40;99.90
5621;DHT22;2832;50.864;12.186;2024-01-16T00:04:49;6.40;99.90
5621;DHT22;2832;50.864;12.186;2024-01-16T00:07:23;6.30;99.90
5621;DHT22;2832;50.864;12.186;2024-01-16T00:09:52;6.40;99.90
5621;DHT22;2832;50.864;12.186;2024-01-16T00:12:28;6.40;99.90
5621;DHT22;2832;50.864;12.186;2024-01-16T00:14:59;6.40;99.90
5621;DHT22;2832;50.864;12.186;2024-01-16T00:17:28;6.40;99.90
5621;DHT22;2832;50.864;12.186;2024-01-16T00:19:58;6.40;99.90
5621;DHT22;2832;50.864;12.186;2024-01-16T00:22:36;6.40;99.90
5621;DHT22;2832;50.864;12.186;2024-01-16T00:25:09;6.50;99.90
5621;DHT22;2832;50.864;12.186;2024-01-16T00:27:39;6.40;99.90
5621;DHT22;2832;50.864;12.186;2024-01-16T00:30:11;6.40;99.90
5621;DHT22;2832;50.864;12.186;2024-01-16T00:32:43;6.40;99.90
5621;DHT22;2832;50.864;12.186;2024-01-16T00:35:12;6.40;99.90
5621;DHT22;2832;50.864;12.186;2024-01-16T00:37:42;6.40;99.90
5621;DHT22;2832;50.864;12.186;2024-01-16T00:40:11;6.40;99.90
5621;DHT22;2832;50.864;12.186;2024-01-16T00:42:40;6.40;99.90
5621;DHT22;2832;50.864;12.186;2024-01-16T00:45:10;6.40;99.90
5621;DHT22;2832;50.864;12.186;2024-01-16T00:47:40;6.40;99.90
5621;DHT22;2832;50.864;12.186;2024-01-16T00:50:15;6.40;99.90
5621;DHT22;2832;50.864;12.186;2024-01-16T00:52:48;6.40;99.90
5621;DHT22;2832;50.864;12.186;2024-01-16T00:55:18;6.40;99.90
5621;DHT22;2832;50.864;12.186;2024-01-16T00:57:51;6.40;99.90
5621;DHT22;2832;50.864;12.186;2024-01-16T01:00:20;6.40;99.90
5621;DHT22;2832;50.864;12.186;2024-01-16T01:02:50;6.40;99.90
5621;DHT22;2832;50.864;12.186;2024-01-16T01:05:19;6.40;99.90
5621;DHT22;2832;50.864;12.186;2024-01-16T01:07:53;6.40;99.90
5621;DHT22;2832;50.864;12.186;2024-01-16T01:10:23;6.30;99.90
5621;DHT22;2832;50.864;12.186;2024-01-16T01:12:52;6.40;99.90
5621;DHT22;2832;50.864;12.186;2024-01-16T01:15:21;6.30;99.90
5621;DHT22;2832;50.864;12.186;2024-01-16T01:17:50;6.40;99.90
5621;DHT22;2832;50.864;12.186;2024-01-16T01:20:19;6.30;99.90
5621;DHT22;2832;50.864;12.186;2024-01-16T01:22:47;6.30;99.90
5621;DHT22;2832;50.864;12.186;2024-01-16T01:25:19;6.30;99.90
5621;DHT22;2832;50.864;12.186;2024-01-16T01:27:50;6.30;99.90
5621;DHT22;2832;50.864;12.186;2024-01-16T01:30:18;6.30;99.90
5621;DHT22;2832;50.864;12.186;2024-01-16T01:32:52;6.30;99.90
5621;DHT22;2832;50.864;12.186;2024-01-16T01:35:21;6.30;99.90
5621;DHT22;2832;50.864;12.186;2024-01-16T01:37:50;6.30;99.90
5621;DHT22;2832;50.864;12.186;2024-01-16T01:40:22;6.30;99.90
5621;DHT22;2832;50.864;12.186;2024-01-16T01:42:52;6.30;99.90
5621;DHT22;2832;50.864;12.186;2024-01-16T01:45:20;6.30;99.90
5621;DHT22;2832;50.864;12.186;2024-01-16T01:47:50;6.30;99.90
5621;DHT22;2832;50.864;12.186;2024-01-16T01:50:25;6.30;99.90
5621;DHT22;2832;50.864;12.186;2024-01-16T01:52:52;6.30;99.90
5621;DHT22;2832;50.864;12.186;2024-01-16T01:55:25;6.30;99.90
5621;DHT22;2832;50.864;12.186;2024-01-16T01:57:58;6.30;99.90
5621;DHT22;2832;50.864;12.186;2024-01-16T02:00:52;6.30;99.90
5621;DHT22;2832;50.864;12.186;2024-01-16T02:07:41;6.30;99.90
5621;DHT22;2832;50.864;12.186;2024-01-16T02:10:13;6.30;99.90
5621;DHT22;2832;50.864;12.186;2024-01-16T02:12:44;6.40;99.90
5621;DHT22;2832;50.864;12.186;2024-01-16T02:15:31;6.40;99.90
5621;DHT22;2832;50.864;12.186;2024-01-16T02:18:08;6.40;99.90
5621;DHT22;2832;50.864;12.186;2024-01-16T02:27:13;6.40;99.90
5621;DHT22;2832;50.864;12.186;2024-01-16T02:29:48;6.30;99.90
5621;DHT22;2832;50.864;12.186;2024-01-16T02:32:24;6.30;99.90
5621;DHT22;2832;50.864;12.186;2024-01-16T02:34:52;6.40;99.90
5621;DHT22;2832;50.864;12.186;2024-01-16T02:37:19;6.30;99.90
5621;DHT22;2832;50.864;12.186;2024-01-16T02:39:48;6.40;99.90
5621;DHT22;2832;50.864;12.186;2024-01-16T02:42:17;6.30;99.90
5621;DHT22;2832;50.864;12.186;2024-01-16T02:44:45;6.40;99.90
5621;DHT22;2832;50.864;12.186;2024-01-16T02:47:15;6.30;99.90
5621;DHT22;2832;50.864;12.186;2024-01-16T02:49:43;6.40;99.90
5621;DHT22;2832;50.864;12.186;2024-01-16T02:52:14;6.40;99.90
5621;DHT22;2832;50.864;12.186;2024-01-16T02:54:45;6.40;99.90
5621;DHT22;2832;50.864;12.186;2024-01-16T02:57:20;6.40;99.90
5621;DHT22;2832;50.864;12.186;2024-01-16T02:59:49;6.30;99.90
5621;DHT22;2832;50.864;12.186;2024-01-16T03:02:17;6.30;99.90
5621;DHT22;2832;50.864;12.186;2024-01-16T03:04:45;6.30;99.90
5621;DHT22;2832;50.864;12.186;2024-01-16T03:07:13;6.40;99.90
5621;DHT22;2832;50.864;12.186;2024-01-16T03:09:46;6.40;99.90
5621;DHT22;2832;50.864;12.186;2024-01-16T03:12:24;6.40;99.90
5621;DHT22;2832;50.864;12.186;2024-01-16T03:15:01;6.40;99.90
5621;DHT22;2832;50.864;12.186;2024-01-16T03:17:45;6.40;99.90
5621;DHT22;2832;50.864;12.186;2024-01-16T03:20:21;6.40;99.90
5621;DHT22;2832;50.864;12.186;2024-01-16T03:22:57;6.40;99.90
5621;DHT22;2832;50.864;12.186;2024-01-16T03:25:26;6.40;99.90
5621;DHT22;2832;50.864;12.186;2024-01-16T03:28:35;6.40;99.90
5621;DHT22;2832;50.864;12.186;2024-01-16T03:31:15;6.40;99.90
5621;DHT22;2832;50.864;12.186;2024-01-16T03:33:57;6.40;99.90
5621;DHT22;2832;50.864;12.186;2024-01-16T03:36:35;6.40;99.90
5621;DHT22;2832;50.864;12.186;2024-01-16T03:39:05;6.30;99.90
5621;DHT22;2832;50.864;12.186;2024-01-16T03:41:42;6.30;99.90
5621;DHT22;2832;50.864;12.186;2024-01-16T03:44:47;6.30;99.90
5621;DHT22;2832;50.864;12.186;2024-01-16T03:47:24;6.30;99.90
5621;DHT22;2832;50.864;12.186;2024-01-16T03:50:05;6.30;99.90
5621;DHT22;2832;50.864;12.186;2024-01-16T03:52:36;6.20;99.90
5621;DHT22;2832;50.864;12.186;2024-01-16T03:55:04;6.20;99.90
5621;DHT22;2832;50.864;12.186;2024-01-16T03:57:33;6.30;99.90
5621;DHT22;2832;50.864;12.186;2024-01-16T04:00:10;6.30;99.90
5621;DHT22;2832;50.864;12.186;2024-01-16T04:02:45;6.30;99.90
5621;DHT22;2832;50.864;12.186;2024-01-16T04:05:13;6.30;99.90
5621;DHT22;2832;50.864;12.186;2024-01-16T04:07:46;6.30;99.90
5621;DHT22;2832;50.864;12.186;2024-01-16T04:10:14;6.40;99.90
5621;DHT22;2832;50.864;12.186;2024-01-16T04:12:43;6.40;99.90
5621;DHT22;2832;50.864;12.186;2024-01-16T04:15:13;6.40;99.90
5621;DHT22;2832;50.864;12.186;2024-01-16T04:17:41;6.40;99.90
5621;DHT22;2832;50.864;12.186;2024-01-16T04:20:10;6.40;99.90
5621;DHT22;2832;50.864;12.186;2024-01-16T04:22:40;6.40;99.90
5621;DHT22;2832;50.864;12.186;2024-01-16T04:25:09;6.40;99.90
5621;DHT22;2832;50.864;12.186;2024-01-16T04:27:46;6.40;99.90
5621;DHT22;2832;50.864;12.186;2024-01-16T04:30:16;6.40;99.90
5621;DHT22;2832;50.864;12.186;2024-01-16T04:32:50;6.40;99.90
5621;DHT22;2832;50.864;12.186;2024-01-16T04:35:18;6.40;99.90
5621;DHT22;2832;50.864;12.186;2024-01-16T04:37:47;6.40;99.90
5621;DHT22;2832;50.864;12.186;2024-01-16T04:40:15;6.40;99.90
5621;DHT22;2832;50.864;12.186;2024-01-16T04:42:46;6.40;99.90
5621;DHT22;2832;50.864;12.186;2024-01-16T04:45:20;6.40;99.90
5621;DHT22;2832;50.864;12.186;2024-01-16T04:47:52;6.40;99.90
5621;DHT22;2832;50.864;12.186;2024-01-16T04:50:21;6.50;99.90
5621;DHT22;2832;50.864;12.186;2024-01-16T04:53:01;6.50;99.90
5621;DHT22;2832;50.864;12.186;2024-01-16T04:55:33;6.50;99.90
5621;DHT22;2832;50.864;12.186;2024-01-16T04:58:02;6.50;99.90
5621;DHT22;2832;50.864;12.186;2024-01-16T05:00:39;6.50;99.90
5621;DHT22;2832;50.864;12.186;2024-01-16T05:03:06;6.50;99.90
5621;DHT22;2832;50.864;12.186;2024-01-16T05:05:37;6.50;99.90
5621;DHT22;2832;50.864;12.186;2024-01-16T05:08:10;6.50;99.90
5621;DHT22;2832;50.864;12.186;2024-01-16T05:10:39;6.50;99.90
5621;DHT22;2832;50.864;12.186;2024-01-16T05:13:53;6.40;99.90
5621;DHT22;2832;50.864;12.186;2024-01-16T05:16:27;6.40;99.90
5621;DHT22;2832;50.864;12.186;2024-01-16T05:18:57;6.50;99.90
5621;DHT22;2832;50.864;12.186;2024-01-16T05:21:25;6.40;99.90
5621;DHT22;2832;50.864;12.186;2024-01-16T05:23:55;6.40;99.90
5621;DHT22;2832;50.864;12.186;2024-01-16T05:26:26;6.40;99.90
5621;DHT22;2832;50.864;12.186;2024-01-16T05:28:54;6.30;99.90
5621;DHT22;2832;50.864;12.186;2024-01-16T05:31:27;6.40;99.90
5621;DHT22;2832;50.864;12.186;2024-01-16T05:33:58;6.40;99.90
5621;DHT22;2832;50.864;12.186;2024-01-16T05:36:27;6.40;99.90
5621;DHT22;2832;50.864;12.186;2024-01-16T05:38:58;6.40;99.90
5621;DHT22;2832;50.864;12.186;2024-01-16T05:41:32;6.30;99.90
5621;DHT22;2832;50.864;12.186;2024-01-16T05:44:10;6.30;99.90
5621;DHT22;2832;50.864;12.186;2024-01-16T05:46:46;6.30;99.90
5621;DHT22;2832;50.864;12.186;2024-01-16T05:49:19;6.30;99.90
5621;DHT22;2832;50.864;12.186;2024-01-16T05:51:52;6.30;99.90
5621;DHT22;2832;50.864;12.186;2024-01-16T05:54:25;6.30;99.90
5621;DHT22;2832;50.864;12.186;2024-01-16T05:56:54;6.30;99.90
5621;DHT22;2832;50.864;12.186;2024-01-16T05:59:36;6.30;99.90
5621;DHT22;2832;50.864;12.186;2024-01-16T06:02:16;6.30;99.90
5621;DHT22;2832;50.864;12.186;2024-01-16T06:04:49;6.30;99.90
5621;DHT22;2832;50.864;12.186;2024-01-16T06:07:20;6.20;99.90
5621;DHT22;2832;50.864;12.186;2024-01-16T06:09:50;6.30;99.90
5621;DHT22;2832;50.864;12.186;2024-01-16T06:12:31;6.30;99.90
5621;DHT22;2832;50.864;12.186;2024-01-16T06:15:03;6.20;99.90
5621;DHT22;2832;50.864;12.186;2024-01-16T06:17:48;6.20;99.90
5621;DHT22;2832;50.864;12.186;2024-01-16T06:20:46;6.20;99.90
5621;DHT22;2832;50.864;12.186;2024-01-16T06:23:19;6.20;99.90
5621;DHT22;2832;50.864;12.186;2024-01-16T06:25:51;6.20;99.90
5621;DHT22;2832;50.864;12.186;2024-01-16T06:28:25;6.20;99.90
5621;DHT22;2832;50.864;12.186;2024-01-16T06:31:02;6.10;99.90
5621;DHT22;2832;50.864;12.186;2024-01-16T06:36:42;6.20;99.90
5621;DHT22;2832;50.864;12.186;2024-01-16T06:39:19;6.10;99.90
5621;DHT22;2832;50.864;12.186;2024-01-16T06:45:00;6.10;99.90
5621;DHT22;2832;50.864;12.186;2024-01-16T06:47:32;6.10;99.90
5621;DHT22;2832;50.864;12.186;2024-01-16T06:53:54;6.10;99.90
5621;DHT22;2832;50.864;12.186;2024-01-16T06:56:35;6.20;99.90
5621;DHT22;2832;50.864;12.186;2024-01-16T06:59:09;6.20;99.90
5621;DHT22;2832;50.864;12.186;2024-01-16T07:01:52;6.20;99.90
5621;DHT22;2832;50.864;12.186;2024-01-16T07:04:25;6.20;99.90
5621;DHT22;2832;50.864;12.186;2024-01-16T07:07:08;6.20;99.90
5621;DHT22;2832;50.864;12.186;2024-01-16T07:09:46;6.20;99.90
5621;DHT22;2832;50.864;12.186;2024-01-16T07:12:28;6.20;99.90
5621;DHT22;2832;50.864;12.186;2024-01-16T07:15:40;6.10;99.90
5621;DHT22;2832;50.864;12.186;2024-01-16T07:18:15;6.10;99.90
5621;DHT22;2832;50.864;12.186;2024-01-16T07:20:48;6.10;99.90
5621;DHT22;2832;50.864;12.186;2024-01-16T07:23:27;6.10;99.90
5621;DHT22;2832;50.864;12.186;2024-01-16T07:26:05;6.10;99.90
5621;DHT22;2832;50.864;12.186;2024-01-16T07:28:38;6.10;99.90
5621;DHT22;2832;50.864;12.186;2024-01-16T07:31:15;6.10;99.90
5621;DHT22;2832;50.864;12.186;2024-01-16T07:33:48;6.10;99.90
5621;DHT22;2832;50.864;12.186;2024-01-16T07:36:20;6.00;99.90
5621;DHT22;2832;50.864;12.186;2024-01-16T07:38:56;6.10;99.90
5621;DHT22;2832;50.864;12.186;2024-01-16T07:41:43;6.10;99.90
5621;DHT22;2832;50.864;12.186;2024-01-16T07:44:18;6.10;99.90
5621;DHT22;2832;50.864;12.186;2024-01-16T07:47:38;6.10;99.90
5621;DHT22;2832;50.864;12.186;2024-01-16T07:50:10;6.10;99.90
5621;DHT22;2832;50.864;12.186;2024-01-16T07:52:45;6.10;99.90
5621;DHT22;2832;50.864;12.186;2024-01-16T07:55:23;6.00;99.90
5621;DHT22;2832;50.864;12.186;2024-01-16T07:58:00;6.00;99.90
5621;DHT22;2832;50.864;12.186;2024-01-16T08:00:39;6.10;99.90
5621;DHT22;2832;50.864;12.186;2024-01-16T08:03:16;6.10;99.90
5621;DHT22;2832;50.864;12.186;2024-01-16T08:05:57;6.10;99.90
5621;DHT22;2832;50.864;12.186;2024-01-16T08:08:29;6.00;99.90
5621;DHT22;2832;50.864;12.186;2024-01-16T08:11:26;6.10;99.90
5621;DHT22;2832;50.864;12.186;2024-01-16T08:14:00;6.00;99.90
5621;DHT22;2832;50.864;12.186;2024-01-16T08:16:47;6.00;99.90
5621;DHT22;2832;50.864;12.186;2024-01-16T08:19:40;6.00;99.90
5621;DHT22;2832;50.864;12.186;2024-01-16T08:22:26;6.00;99.90
5621;DHT22;2832;50.864;12.186;2024-01-16T08:25:03;6.00;99.90
5621;DHT22;2832;50.864;12.186;2024-01-16T08:28:08;6.00;99.90
5621;DHT22;2832;50.864;12.186;2024-01-16T08:31:02;6.00;99.90
5621;DHT22;2832;50.864;12.186;2024-01-16T08:33:36;6.10;99.90
5621;DHT22;2832;50.864;12.186;2024-01-16T08:36:17;6.00;99.90
5621;DHT22;2832;50.864;12.186;2024-01-16T08:38:50;6.00;99.90
5621;DHT22;2832;50.864;12.186;2024-01-16T08:41:26;6.00;99.90
5621;DHT22;2832;50.864;12.186;2024-01-16T08:44:38;6.00;99.90
5621;DHT22;2832;50.864;12.186;2024-01-16T08:47:41;6.00;99.90
5621;DHT22;2832;50.864;12.186;2024-01-16T08:50:13;6.00;99.90
5621;DHT22;2832;50.864;12.186;2024-01-16T08:52:56;5.90;99.90
5621;DHT22;2832;50.864;12.186;2024-01-16T08:55:33;5.90;99.90
5621;DHT22;2832;50.864;12.186;2024-01-16T08:58:08;6.00;99.90
5621;DHT22;2832;50.864;12.186;2024-01-16T09:00:53;5.90;99.90
5621;DHT22;2832;50.864;12.186;2024-01-16T09:03:48;5.90;99.90
5621;DHT22;2832;50.864;12.186;2024-01-16T09:06:50;5.90;99.90
5621;DHT22;2832;50.864;12.186;2024-01-16T09:09:25;5.90;99.90
5621;DHT22;2832;50.864;12.186;2024-01-16T09:12:11;6.00;99.90
5621;DHT22;2832;50.864;12.186;2024-01-16T09:14:50;5.90;99.90
5621;DHT22;2832;50.864;12.186;2024-01-16T09:17:34;5.90;99.90
5621;DHT22;2832;50.864;12.186;2024-01-16T09:20:32;6.00;99.90
5621;DHT22;2832;50.864;12.186;2024-01-16T09:23:07;5.90;99.90
5621;DHT22;2832;50.864;12.186;2024-01-16T09:26:25;5.90;99.90
5621;DHT22;2832;50.864;12.186;2024-01-16T09:29:04;5.90;99.90
5621;DHT22;2832;50.864;12.186;2024-01-16T09:31:50;5.90;99.90
5621;DHT22;2832;50.864;12.186;2024-01-16T09:34:30;5.90;99.90
5621;DHT22;2832;50.864;12.186;2024-01-16T09:37:07;5.90;99.90
5621;DHT22;2832;50.864;12.186;2024-01-16T09:39:46;5.90;99.90
5621;DHT22;2832;50.864;12.186;2024-01-16T09:42:38;5.90;99.90
5621;DHT22;2832;50.864;12.186;2024-01-16T09:45:21;5.90;99.90
5621;DHT22;2832;50.864;12.186;2024-01-16T09:48:01;5.90;99.90
5621;DHT22;2832;50.864;12.186;2024-01-16T09:50:48;6.00;99.90
5621;DHT22;2832;50.864;12.186;2024-01-16T09:53:36;6.00;99.90
5621;DHT22;2832;50.864;12.186;2024-01-16T09:56:11;6.00;99.90
5621;DHT22;2832;50.864;12.186;2024-01-16T09:58:44;6.00;99.90
5621;DHT22;2832;50.864;12.186;2024-01-16T10:01:48;5.90;99.90
5621;DHT22;2832;50.864;12.186;2024-01-16T10:04:27;5.90;99.90
5621;DHT22;2832;50.864;12.186;2024-01-16T10:07:15;5.90;99.90
5621;DHT22;2832;50.864;12.186;2024-01-16T10:13:33;5.90;99.90
5621;DHT22;2832;50.864;12.186;2024-01-16T10:16:05;5.90;99.90
5621;DHT22;2832;50.864;12.186;2024-01-16T10:18:40;5.90;99.90
5621;DHT22;2832;50.864;12.186;2024-01-16T10:21:22;5.90;99.90
5621;DHT22;2832;50.864;12.186;2024-01-16T10:24:11;6.00;99.90
5621;DHT22;2832;50.864;12.186;2024-01-16T10:26:43;6.00;99.90
5621;DHT22;2832;50.864;12.186;2024-01-16T10:29:13;5.90;99.90
5621;DHT22;2832;50.864;12.186;2024-01-16T10:31:42;5.90;99.90
5621;DHT22;2832;50.864;12.186;2024-01-16T10:34:30;5.90;99.90
5621;DHT22;2832;50.864;12.186;2024-01-16T10:37:42;5.90;99.90
5621;DHT22;2832;50.864;12.186;2024-01-16T10:40:20;5.90;99.90
5621;DHT22;2832;50.864;12.186;2024-01-16T10:43:02;5.90;99.90
5621;DHT22;2832;50.864;12.186;2024-01-16T10:49:22;6.00;99.90
5621;DHT22;2832;50.864;12.186;2024-01-16T10:52:27;5.90;99.90
5621;DHT22;2832;50.864;12.186;2024-01-16T10:55:15;6.00;99.90
5621;DHT22;2832;50.864;12.186;2024-01-16T10:57:59;6.00;99.90
5621;DHT22;2832;50.864;12.186;2024-01-16T11:00:40;6.00;99.90
5621;DHT22;2832;50.864;12.186;2024-01-16T11:03:33;6.00;99.90
5621;DHT22;2832;50.864;12.186;2024-01-16T11:06:30;6.00;99.90
5621;DHT22;2832;50.864;12.186;2024-01-16T11:09:23;5.90;99.90
5621;DHT22;2832;50.864;12.186;2024-01-16T11:12:08;5.90;99.90
5621;DHT22;2832;50.864;12.186;2024-01-16T11:15:53;5.90;99.90
5621;DHT22;2832;50.864;12.186;2024-01-16T11:18:25;6.00;99.90
5621;DHT22;2832;50.864;12.186;2024-01-16T11:21:07;6.00;99.90
5621;DHT22;2832;50.864;12.186;2024-01-16T11:24:00;5.90;99.90
5621;DHT22;2832;50.864;12.186;2024-01-16T11:27:36;6.00;99.90
5621;DHT22;2832;50.864;12.186;2024-01-16T11:30:11;6.00;99.90
5621;DHT22;2832;50.864;12.186;2024-01-16T11:32:47;6.10;99.90
5621;DHT22;2832;50.864;12.186;2024-01-16T11:35:32;6.00;99.90
5621;DHT22;2832;50.864;12.186;2024-01-16T11:38:15;6.00;99.90
5621;DHT22;2832;50.864;12.186;2024-01-16T11:44:40;6.10;99.90
5621;DHT22;2832;50.864;12.186;2024-01-16T11:47:17;6.00;99.90
5621;DHT22;2832;50.864;12.186;2024-01-16T11:50:09;6.00;99.90
5621;DHT22;2832;50.864;12.186;2024-01-16T12:04:59;6.10;99.90
5621;DHT22;2832;50.864;12.186;2024-01-16T12:07:48;6.10;99.90
5621;DHT22;2832;50.864;12.186;2024-01-16T12:10:28;6.10;99.90
5621;DHT22;2832;50.864;12.186;2024-01-16T12:13:09;6.20;99.90
5621;DHT22;2832;50.864;12.186;2024-01-16T12:16:29;6.20;99.90
5621;DHT22;2832;50.864;12.186;2024-01-16T12:19:11;6.20;99.90
5621;DHT22;2832;50.864;12.186;2024-01-16T12:21:51;6.20;99.90
5621;DHT22;2832;50.864;12.186;2024-01-16T12:24:28;6.20;99.90
5621;DHT22;2832;50.864;12.186;2024-01-16T12:27:16;6.20;99.90
5621;DHT22;2832;50.864;12.186;2024-01-16T12:30:15;6.20;99.90
5621;DHT22;2832;50.864;12.186;2024-01-16T12:32:52;6.20;99.90
5621;DHT22;2832;50.864;12.186;2024-01-16T12:35:36;6.20;99.90
5621;DHT22;2832;50.864;12.186;2024-01-16T12:38:24;6.20;99.90
5621;DHT22;2832;50.864;12.186;2024-01-16T12:40:58;6.20;99.90
5621;DHT22;2832;50.864;12.186;2024-01-16T12:43:32;6.20;99.90
5621;DHT22;2832;50.864;12.186;2024-01-16T12:46:12;6.20;99.90
5621;DHT22;2832;50.864;12.186;2024-01-16T12:48:47;6.20;99.90
5621;DHT22;2832;50.864;12.186;2024-01-16T12:51:24;6.20;99.90
5621;DHT22;2832;50.864;12.186;2024-01-16T12:54:10;6.20;99.90
5621;DHT22;2832;50.864;12.186;2024-01-16T12:56:42;6.20;99.90
5621;DHT22;2832;50.864;12.186;2024-01-16T12:59:26;6.20;99.90
5621;DHT22;2832;50.864;12.186;2024-01-16T13:05:11;6.20;99.90
5621;DHT22;2832;50.864;12.186;2024-01-16T13:19:11;6.20;99.90
5621;DHT22;2832;50.864;12.186;2024-01-16T13:21:43;6.20;99.90
5621;DHT22;2832;50.864;12.186;2024-01-16T13:24:41;6.20;99.90
5621;DHT22;2832;50.864;12.186;2024-01-16T13:27:21;6.20;99.90
5621;DHT22;2832;50.864;12.186;2024-01-16T13:30:06;6.40;99.90
5621;DHT22;2832;50.864;12.186;2024-01-16T13:32:41;6.80;99.90
5621;DHT22;2832;50.864;12.186;2024-01-16T13:35:54;7.30;99.90
5621;DHT22;2832;50.864;12.186;2024-01-16T13:39:14;7.60;99.90
5621;DHT22;2832;50.864;12.186;2024-01-16T13:43:00;7.70;99.90
5621;DHT22;2832;50.864;12.186;2024-01-16T13:45:46;7.80;99.90
5621;DHT22;2832;50.864;12.186;2024-01-16T13:48:20;7.90;99.90
5621;DHT22;2832;50.864;12.186;2024-01-16T13:51:31;8.00;99.90
5621;DHT22;2832;50.864;12.186;2024-01-16T13:54:01;8.00;99.90
5621;DHT22;2832;50.864;12.186;2024-01-16T13:56:32;8.00;99.90
5621;DHT22;2832;50.864;12.186;2024-01-16T13:59:03;8.00;99.90
5621;DHT22;2832;50.864;12.186;2024-01-16T14:01:37;8.00;99.90
5621;DHT22;2832;50.864;12.186;2024-01-16T14:04:46;7.80;99.90
5621;DHT22;2832;50.864;12.186;2024-01-16T14:07:37;7.50;99.90
5621;DHT22;2832;50.864;12.186;2024-01-16T14:17:42;6.90;99.90
5621;DHT22;2832;50.864;12.186;2024-01-16T14:20:23;6.70;99.90
5621;DHT22;2832;50.864;12.186;2024-01-16T14:22:59;6.60;99.90
5621;DHT22;2832;50.864;12.186;2024-01-16T14:25:32;6.60;99.90
5621;DHT22;2832;50.864;12.186;2024-01-16T14:28:07;6.50;99.90
5621;DHT22;2832;50.864;12.186;2024-01-16T14:30:39;6.40;99.90
5621;DHT22;2832;50.864;12.186;2024-01-16T14:33:11;6.40;99.90
5621;DHT22;2832;50.864;12.186;2024-01-16T14:35:46;6.40;99.90
5621;DHT22;2832;50.864;12.186;2024-01-16T14:38:21;6.30;99.90
5621;DHT22;2832;50.864;12.186;2024-01-16T14:40:54;6.30;99.90
5621;DHT22;2832;50.864;12.186;2024-01-16T14:43:37;6.20;99.90
5621;DHT22;2832;50.864;12.186;2024-01-16T14:46:09;6.20;99.90
5621;DHT22;2832;50.864;12.186;2024-01-16T14:48:44;6.20;99.90
5621;DHT22;2832;50.864;12.186;2024-01-16T14:51:33;6.20;99.90
5621;DHT22;2832;50.864;12.186;2024-01-16T14:54:13;6.10;99.90
5621;DHT22;2832;50.864;12.186;2024-01-16T14:56:45;6.10;99.90
5621;DHT22;2832;50.864;12.186;2024-01-16T14:59:21;6.10;99.90
5621;DHT22;2832;50.864;12.186;2024-01-16T15:01:57;6.10;99.90
5621;DHT22;2832;50.864;12.186;2024-01-16T15:04:41;6.10;99.90
5621;DHT22;2832;50.864;12.186;2024-01-16T15:07:23;6.10;99.90
5621;DHT22;2832;50.864;12.186;2024-01-16T15:13:24;6.10;99.90
5621;DHT22;2832;50.864;12.186;2024-01-16T15:16:34;6.10;99.90
5621;DHT22;2832;50.864;12.186;2024-01-16T15:19:07;6.00;99.90
5621;DHT22;2832;50.864;12.186;2024-01-16T15:21:43;6.00;99.90
5621;DHT22;2832;50.864;12.186;2024-01-16T15:24:15;6.00;99.90
5621;DHT22;2832;50.864;12.186;2024-01-16T15:26:56;6.00;99.90
5621;DHT22;2832;50.864;12.186;2024-01-16T15:29:36;6.10;99.90
5621;DHT22;2832;50.864;12.186;2024-01-16T15:32:14;6.00;99.90
5621;DHT22;2832;50.864;12.186;2024-01-16T15:34:48;6.00;99.90
5621;DHT22;2832;50.864;12.186;2024-01-16T15:37:22;6.00;99.90
5621;DHT22;2832;50.864;12.186;2024-01-16T15:39:57;6.00;99.90
5621;DHT22;2832;50.864;12.186;2024-01-16T15:42:32;6.00;99.90
5621;DHT22;2832;50.864;12.186;2024-01-16T15:45:17;6.00;99.90
5621;DHT22;2832;50.864;12.186;2024-01-16T15:47:48;6.00;99.90
5621;DHT22;2832;50.864;12.186;2024-01-16T15:50:30;6.00;99.90
5621;DHT22;2832;50.864;12.186;2024-01-16T15:53:07;6.00;99.90
5621;DHT22;2832;50.864;12.186;2024-01-16T15:55:38;6.00;99.90
5621;DHT22;2832;50.864;12.186;2024-01-16T15:58:31;6.00;99.90
5621;DHT22;2832;50.864;12.186;2024-01-16T16:01:04;6.00;99.90
5621;DHT22;2832;50.864;12.186;2024-01-16T16:03:37;6.00;99.90
5621;DHT22;2832;50.864;12.186;2024-01-16T16:06:12;6.00;99.90
5621;DHT22;2832;50.864;12.186;2024-01-16T16:08:41;6.00;99.90
5621;DHT22;2832;50.864;12.186;2024-01-16T16:11:15;6.00;99.90
5621;DHT22;2832;50.864;12.186;2024-01-16T16:13:50;6.00;99.90
5621;DHT22;2832;50.864;12.186;2024-01-16T16:16:26;6.00;99.90
5621;DHT22;2832;50.864;12.186;2024-01-16T16:19:00;6.00;99.90
5621;DHT22;2832;50.864;12.186;2024-01-16T16:21:36;6.00;99.90
5621;DHT22;2832;50.864;12.186;2024-01-16T16:24:12;6.00;99.90
5621;DHT22;2832;50.864;12.186;2024-01-16T16:26:43;6.00;99.90
5621;DHT22;2832;50.864;12.186;2024-01-16T16:29:14;6.00;99.90
5621;DHT22;2832;50.864;12.186;2024-01-16T16:31:52;6.00;99.90
5621;DHT22;2832;50.864;12.186;2024-01-16T16:34:32;6.00;99.90
5621;DHT22;2832;50.864;12.186;2024-01-16T16:37:01;6.00;99.90
5621;DHT22;2832;50.864;12.186;2024-01-16T16:39:32;6.00;99.90
5621;DHT22;2832;50.864;12.186;2024-01-16T16:42:05;6.00;99.90
5621;DHT22;2832;50.864;12.186;2024-01-16T16:44:44;6.00;99.90
5621;DHT22;2832;50.864;12.186;2024-01-16T16:47:33;6.00;99.90
5621;DHT22;2832;50.864;12.186;2024-01-16T16:50:05;6.00;99.90
5621;DHT22;2832;50.864;12.186;2024-01-16T16:52:39;6.00;99.90
5621;DHT22;2832;50.864;12.186;2024-01-16T16:55:10;6.00;99.90
5621;DHT22;2832;50.864;12.186;2024-01-16T16:57:54;5.90;99.90
5621;DHT22;2832;50.864;12.186;2024-01-16T17:00:23;5.90;99.90
5621;DHT22;2832;50.864;12.186;2024-01-16T17:02:55;6.00;99.90
5621;DHT22;2832;50.864;12.186;2024-01-16T17:05:27;6.00;99.90
5621;DHT22;2832;50.864;12.186;2024-01-16T17:08:25;6.00;99.90
5621;DHT22;2832;50.864;12.186;2024-01-16T17:11:14;6.00;99.90
5621;DHT22;2832;50.864;12.186;2024-01-16T17:13:49;6.00;99.90
5621;DHT22;2832;50.864;12.186;2024-01-16T17:16:19;6.00;99.90
5621;DHT22;2832;50.864;12.186;2024-01-16T17:18:56;6.00;99.90
5621;DHT22;2832;50.864;12.186;2024-01-16T17:21:28;6.00;99.90
5621;DHT22;2832;50.864;12.186;2024-01-16T17:24:10;6.00;99.90
5621;DHT22;2832;50.864;12.186;2024-01-16T17:26:39;6.10;99.90
5621;DHT22;2832;50.864;12.186;2024-01-16T17:29:12;6.10;99.90
5621;DHT22;2832;50.864;12.186;2024-01-16T17:31:51;6.10;99.90
5621;DHT22;2832;50.864;12.186;2024-01-16T17:34:26;6.00;99.90
5621;DHT22;2832;50.864;12.186;2024-01-16T17:37:02;6.00;99.90
5621;DHT22;2832;50.864;12.186;2024-01-16T17:39:36;6.10;99.90
5621;DHT22;2832;50.864;12.186;2024-01-16T17:42:07;6.10;99.90
5621;DHT22;2832;50.864;12.186;2024-01-16T17:44:52;6.10;99.90
5621;DHT22;2832;50.864;12.186;2024-01-16T17:47:27;6.00;99.90
5621;DHT22;2832;50.864;12.186;2024-01-16T17:50:00;6.00;99.90
5621;DHT22;2832;50.864;12.186;2024-01-16T17:52:34;6.10;99.90
5621;DHT22;2832;50.864;12.186;2024-01-16T17:55:07;6.10;99.90
5621;DHT22;2832;50.864;12.186;2024-01-16T17:57:41;6.00;99.90
5621;DHT22;2832;50.864;12.186;2024-01-16T18:00:12;6.00;99.90
5621;DHT22;2832;50.864;12.186;2024-01-16T18:02:46;6.00;99.90
5621;DHT22;2832;50.864;12.186;2024-01-16T18:05:21;6.00;99.90
5621;DHT22;2832;50.864;12.186;2024-01-16T18:08:06;5.90;99.90
5621;DHT22;2832;50.864;12.186;2024-01-16T18:10:40;5.90;99.90
5621;DHT22;2832;50.864;12.186;2024-01-16T18:13:12;5.90;99.90
5621;DHT22;2832;50.864;12.186;2024-01-16T18:15:48;5.90;99.90
5621;DHT22;2832;50.864;12.186;2024-01-16T18:18:20;5.90;99.90
5621;DHT22;2832;50.864;12.186;2024-01-16T18:21:01;6.00;99.90
5621;DHT22;2832;50.864;12.186;2024-01-16T18:23:35;5.90;99.90